Petersboro, Utah
Current Conditions -  °F | °C
As of 8:51 AM on Tuesday 21 Oct 2014 (Local Time) from KLGU Reporting Station
Scattered Clouds Scattered Clouds  
Wind Chill: 58°   Ceiling: Unl
Heat Index: 58°   Visibility: 10mi
Dew Point: 46°   Wind: 0mph
Humidity: 65%   Direction: NA
Pressure: 29.87"   Gusts: NA
Location:  41.7248°N, 111.974°W
Report Text: KLGU 211451Z AUTO 00000KT 10SM SCT110 14/08 A2987 RMK AO2 RAB1354E27 SLP085 P0001 60001 T01440078 53010 TSNO
Loading
Personal Weather Stations






























Interactive Weather Map
Tropical Storm Tracking
New forecast layout! Learn more

10-Day Weather Forecast

Advertisements
Track Severe Weather on mobile